createdAt,value
2016-09-11T00:00:12.996Z,1015.51
2016-09-11T00:01:12.987Z,1015.49
2016-09-11T00:02:13.005Z,1015.51
2016-09-11T00:03:13.034Z,1015.52
2016-09-11T00:04:13.054Z,1015.51
2016-09-11T00:05:13.085Z,1015.52
2016-09-11T00:06:13.102Z,1015.5
2016-09-11T00:07:13.132Z,1015.51
2016-09-11T00:08:13.153Z,1015.52
2016-09-11T00:09:13.181Z,1015.52
2016-09-11T00:10:13.192Z,1015.49
2016-09-11T00:11:13.225Z,1015.54
2016-09-11T00:12:13.242Z,1015.51
2016-09-11T00:13:13.282Z,1015.52
2016-09-11T00:14:13.293Z,1015.51
2016-09-11T00:15:13.336Z,1015.53
2016-09-11T00:16:13.354Z,1015.54
2016-09-11T00:17:13.369Z,1015.53
2016-09-11T00:18:13.447Z,1015.57
2016-09-11T00:19:13.424Z,1015.54
2016-09-11T00:20:13.448Z,1015.57
2016-09-11T00:21:13.471Z,1015.55
2016-09-11T00:22:13.492Z,1015.57
2016-09-11T00:23:13.512Z,1015.57
2016-09-11T00:24:13.545Z,1015.56
2016-09-11T00:25:13.564Z,1015.5
2016-09-11T00:26:13.615Z,1015.53
2016-09-11T00:27:13.625Z,1015.51
2016-09-11T00:28:13.641Z,1015.51
2016-09-11T00:29:13.666Z,1015.53
2016-09-11T00:30:13.683Z,1015.56
2016-09-11T00:31:13.717Z,1015.53
2016-09-11T00:32:13.733Z,1015.54
2016-09-11T00:33:13.765Z,1015.59
2016-09-11T00:34:13.782Z,1015.58
2016-09-11T00:35:13.810Z,1015.6
2016-09-11T00:36:13.839Z,1015.57
2016-09-11T00:37:13.869Z,1015.58
2016-09-11T00:38:13.884Z,1015.54
2016-09-11T00:39:13.909Z,1015.52
2016-09-11T00:40:13.932Z,1015.49
2016-09-11T00:41:13.953Z,1015.49
2016-09-11T00:42:13.979Z,1015.5
2016-09-11T00:43:14.003Z,1015.52
2016-09-11T00:44:14.029Z,1015.53
2016-09-11T00:45:14.054Z,1015.53
2016-09-11T00:46:14.082Z,1015.5
2016-09-11T00:47:14.105Z,1015.53
2016-09-11T00:48:14.134Z,1015.53
2016-09-11T00:49:14.152Z,1015.51
2016-09-11T00:50:14.185Z,1015.56
2016-09-11T00:51:14.204Z,1015.56
2016-09-11T00:52:14.225Z,1015.56
2016-09-11T00:53:14.258Z,1015.6
2016-09-11T00:54:14.275Z,1015.57
2016-09-11T00:55:14.305Z,1015.59
2016-09-11T00:56:14.323Z,1015.58
2016-09-11T00:57:14.349Z,1015.59
2016-09-11T00:58:14.371Z,1015.54
2016-09-11T00:59:14.398Z,1015.55
2016-09-11T01:00:14.431Z,1015.55
2016-09-11T01:01:14.445Z,1015.56
2016-09-11T01:02:14.470Z,1015.58
2016-09-11T01:03:14.494Z,1015.59
2016-09-11T01:04:14.520Z,1015.59
2016-09-11T01:05:14.541Z,1015.61
2016-09-11T01:06:14.582Z,1015.64
2016-09-11T01:07:14.594Z,1015.66
2016-09-11T01:08:14.616Z,1015.67
2016-09-11T01:09:14.640Z,1015.66
2016-09-11T01:10:14.669Z,1015.67
2016-09-11T01:11:14.698Z,1015.66
2016-09-11T01:12:14.714Z,1015.65
2016-09-11T01:13:14.737Z,1015.69
2016-09-11T01:14:14.773Z,1015.67
2016-09-11T01:15:14.789Z,1015.68
2016-09-11T01:16:14.811Z,1015.68
2016-09-11T01:17:14.842Z,1015.69
2016-09-11T01:18:14.859Z,1015.72
2016-09-11T01:19:14.893Z,1015.7
2016-09-11T01:20:14.907Z,1015.77
2016-09-11T01:21:14.936Z,1015.76
2016-09-11T01:22:15.106Z,1015.78
2016-09-11T01:23:14.991Z,1015.78
2016-09-11T01:24:15.016Z,1015.77
2016-09-11T01:25:15.057Z,1015.74
2016-09-11T01:26:15.063Z,1015.7
2016-09-11T01:27:15.089Z,1015.69
2016-09-11T01:28:15.105Z,1015.69
2016-09-11T01:29:15.136Z,1015.65
2016-09-11T01:30:15.161Z,1015.66
2016-09-11T01:31:15.202Z,1015.68
2016-09-11T01:32:15.245Z,1015.69
2016-09-11T01:33:15.233Z,1015.73
2016-09-11T01:34:15.253Z,1015.72
2016-09-11T01:35:15.279Z,1015.7
2016-09-11T01:36:15.305Z,1015.69
2016-09-11T01:37:15.337Z,1015.65
2016-09-11T01:38:15.352Z,1015.62
2016-09-11T01:39:15.380Z,1015.64
2016-09-11T01:40:15.401Z,1015.63
2016-09-11T01:41:15.435Z,1015.61
2016-09-11T01:42:15.456Z,1015.63
2016-09-11T01:43:15.485Z,1015.61
2016-09-11T01:44:15.508Z,1015.64
2016-09-11T01:45:15.533Z,1015.67
2016-09-11T01:46:15.557Z,1015.67
2016-09-11T01:47:15.579Z,1015.66
2016-09-11T01:48:15.605Z,1015.67
2016-09-11T01:49:15.623Z,1015.66
2016-09-11T01:50:15.654Z,1015.66
2016-09-11T01:51:15.754Z,1015.62
2016-09-11T01:52:15.701Z,1015.61
2016-09-11T01:53:15.725Z,1015.57
2016-09-11T01:54:15.744Z,1015.56
2016-09-11T01:55:15.779Z,1015.58
2016-09-11T01:56:15.801Z,1015.56
2016-09-11T01:57:15.823Z,1015.58
2016-09-11T01:58:15.846Z,1015.58
2016-09-11T01:59:15.879Z,1015.54
2016-09-11T02:00:15.889Z,1015.54
2016-09-11T02:01:15.913Z,1015.57
2016-09-11T02:02:15.946Z,1015.5
2016-09-11T02:03:15.964Z,1015.47
2016-09-11T02:04:15.991Z,1015.5
2016-09-11T02:05:16.013Z,1015.49
2016-09-11T02:06:16.035Z,1015.5
2016-09-11T02:07:16.065Z,1015.45
2016-09-11T02:08:16.089Z,1015.45
2016-09-11T02:09:16.111Z,1015.46
2016-09-11T02:10:16.134Z,1015.42
2016-09-11T02:11:16.155Z,1015.42
2016-09-11T02:12:16.184Z,1015.44
2016-09-11T02:13:16.205Z,1015.41
2016-09-11T02:14:16.234Z,1015.45
2016-09-11T02:15:16.293Z,1015.47
2016-09-11T02:16:16.289Z,1015.48
2016-09-11T02:17:16.301Z,1015.49
2016-09-11T02:18:16.326Z,1015.48
2016-09-11T02:19:16.348Z,1015.5
2016-09-11T02:20:16.395Z,1015.5
2016-09-11T02:21:16.393Z,1015.55
2016-09-11T02:22:16.425Z,1015.54
2016-09-11T02:23:16.446Z,1015.52
2016-09-11T02:24:16.478Z,1015.53
2016-09-11T02:25:16.496Z,1015.51
2016-09-11T02:26:16.516Z,1015.54
2016-09-11T02:27:16.537Z,1015.57
2016-09-11T02:28:16.560Z,1015.56
2016-09-11T02:29:16.597Z,1015.57
2016-09-11T02:30:16.608Z,1015.59
2016-09-11T02:31:16.638Z,1015.61
2016-09-11T02:32:16.663Z,1015.65
2016-09-11T02:33:16.688Z,1015.66
2016-09-11T02:34:16.703Z,1015.72
2016-09-11T02:35:16.744Z,1015.7
2016-09-11T02:36:16.754Z,1015.66
2016-09-11T02:37:16.790Z,1015.71
2016-09-11T02:38:16.878Z,1015.75
2016-09-11T02:39:16.836Z,1015.69
2016-09-11T02:40:16.844Z,1015.69
2016-09-11T02:41:16.868Z,1015.69
2016-09-11T02:42:16.903Z,1015.76
2016-09-11T02:43:16.914Z,1015.71
2016-09-11T02:44:16.939Z,1015.72
2016-09-11T02:45:16.964Z,1015.79
2016-09-11T02:46:17.072Z,1015.74
2016-09-11T02:47:17.009Z,1015.78
2016-09-11T02:48:17.035Z,1015.77
2016-09-11T02:49:17.053Z,1015.79
2016-09-11T02:50:17.084Z,1015.75
2016-09-11T02:51:17.101Z,1015.78
2016-09-11T02:52:17.133Z,1015.77
2016-09-11T02:53:17.154Z,1015.77
2016-09-11T02:54:17.173Z,1015.78
2016-09-11T02:55:17.194Z,1015.76
2016-09-11T02:56:17.276Z,1015.73
2016-09-11T02:57:17.244Z,1015.77
2016-09-11T02:58:17.274Z,1015.76
2016-09-11T02:59:17.306Z,1015.76
2016-09-11T03:00:17.313Z,1015.79
2016-09-11T03:01:17.344Z,1015.79
2016-09-11T03:02:17.386Z,1015.83
2016-09-11T03:03:17.379Z,1015.81
2016-09-11T03:04:17.428Z,1015.83
2016-09-11T03:05:17.435Z,1015.81
2016-09-11T03:06:17.455Z,1015.83
2016-09-11T03:07:17.485Z,1015.84
2016-09-11T03:08:17.504Z,1015.81
2016-09-11T03:09:17.528Z,1015.83
2016-09-11T03:10:17.617Z,1015.85
2016-09-11T03:11:17.575Z,1015.82
2016-09-11T03:12:17.590Z,1015.83
2016-09-11T03:13:17.614Z,1015.83
2016-09-11T03:14:17.644Z,1015.83
2016-09-11T03:15:17.665Z,1015.79
2016-09-11T03:16:17.683Z,1015.84
2016-09-11T03:17:17.711Z,1015.82
2016-09-11T03:18:17.786Z,1015.82
2016-09-11T03:19:17.764Z,1015.82
2016-09-11T03:20:17.774Z,1015.78
2016-09-11T03:21:17.805Z,1015.81
2016-09-11T03:22:17.825Z,1015.82
2016-09-11T03:23:17.846Z,1015.81
2016-09-11T03:24:17.894Z,1015.83
2016-09-11T03:25:17.887Z,1015.8
2016-09-11T03:26:17.925Z,1015.76
2016-09-11T03:27:17.939Z,1015.78
2016-09-11T03:28:17.971Z,1015.82
2016-09-11T03:29:18.232Z,1015.81
2016-09-11T03:30:18.016Z,1015.82
2016-09-11T03:31:18.032Z,1015.81
2016-09-11T03:32:18.055Z,1015.8
2016-09-11T03:33:18.085Z,1015.82
2016-09-11T03:34:18.110Z,1015.88
2016-09-11T03:35:18.126Z,1015.83
2016-09-11T03:36:18.211Z,1015.84
2016-09-11T03:37:18.457Z,1015.85
2016-09-11T03:38:18.189Z,1015.84
2016-09-11T03:39:18.216Z,1015.83
2016-09-11T03:40:18.253Z,1015.82
2016-09-11T03:41:18.261Z,1015.85
2016-09-11T03:42:18.287Z,1015.8
2016-09-11T03:43:18.322Z,1015.78
2016-09-11T03:44:18.334Z,1015.8
2016-09-11T03:45:18.364Z,1015.81
2016-09-11T03:46:18.379Z,1015.8
2016-09-11T03:47:18.409Z,1015.8
2016-09-11T03:48:18.432Z,1015.76
2016-09-11T03:49:18.445Z,1015.78
2016-09-11T03:50:18.469Z,1015.77
2016-09-11T03:51:18.500Z,1015.78
2016-09-11T03:52:18.514Z,1015.82
2016-09-11T03:53:18.538Z,1015.81
2016-09-11T03:54:18.571Z,1015.8
2016-09-11T03:55:18.585Z,1015.81
2016-09-11T03:56:18.738Z,1015.75
2016-09-11T03:57:18.635Z,1015.79
2016-09-11T03:58:18.655Z,1015.75
2016-09-11T03:59:18.674Z,1015.77
2016-09-11T04:00:18.784Z,1015.82
2016-09-11T04:01:18.725Z,1015.77
2016-09-11T04:02:18.744Z,1015.8
2016-09-11T04:03:18.777Z,1015.78
2016-09-11T04:04:18.815Z,1015.8
2016-09-11T04:05:18.813Z,1015.76
2016-09-11T04:06:18.845Z,1015.73
2016-09-11T04:07:18.884Z,1015.74
2016-09-11T04:08:18.878Z,1015.76
2016-09-11T04:09:18.919Z,1015.78
2016-09-11T04:10:18.934Z,1015.81
2016-09-11T04:11:18.955Z,1015.82
2016-09-11T04:12:18.973Z,1015.79
2016-09-11T04:13:19.026Z,1015.85
2016-09-11T04:14:19.024Z,1015.82
2016-09-11T04:15:19.139Z,1015.84
2016-09-11T04:16:19.064Z,1015.83
2016-09-11T04:17:19.098Z,1015.83
2016-09-11T04:18:19.128Z,1015.82
2016-09-11T04:19:19.135Z,1015.84
2016-09-11T04:20:19.225Z,1015.85
2016-09-11T04:21:19.185Z,1015.84
2016-09-11T04:22:19.227Z,1015.83
2016-09-11T04:23:19.223Z,1015.85
2016-09-11T04:24:19.262Z,1015.85
2016-09-11T04:25:19.274Z,1015.86
2016-09-11T04:26:19.295Z,1015.89
2016-09-11T04:27:19.314Z,1015.88
2016-09-11T04:28:19.347Z,1015.87
2016-09-11T04:29:19.359Z,1015.87
2016-09-11T04:30:19.381Z,1015.91
2016-09-11T04:31:19.403Z,1015.88
2016-09-11T04:32:19.428Z,1015.9
2016-09-11T04:33:19.450Z,1015.97
2016-09-11T04:34:19.472Z,1015.96
2016-09-11T04:35:19.495Z,1015.96
2016-09-11T04:36:19.515Z,1015.99
2016-09-11T04:37:19.543Z,1015.98
2016-09-11T04:38:19.558Z,1016.03
2016-09-11T04:39:19.582Z,1016.01
2016-09-11T04:40:19.612Z,1015.99
2016-09-11T04:41:19.632Z,1016.05
2016-09-11T04:42:19.655Z,1016
2016-09-11T04:43:19.674Z,1016.03
2016-09-11T04:44:19.750Z,1016.02
2016-09-11T04:45:19.721Z,1016.07
2016-09-11T04:46:19.743Z,1016.11
2016-09-11T04:47:19.764Z,1016.09
2016-09-11T04:48:19.783Z,1016.1
2016-09-11T04:49:19.809Z,1016.15
2016-09-11T04:50:19.931Z,1016.16
2016-09-11T04:51:19.855Z,1016.21
2016-09-11T04:52:19.882Z,1016.17
2016-09-11T04:53:19.897Z,1016.2
2016-09-11T04:54:19.919Z,1016.19
2016-09-11T04:55:19.940Z,1016.15
2016-09-11T04:56:19.964Z,1016.18
2016-09-11T04:57:19.987Z,1016.17
2016-09-11T04:58:20.013Z,1016.19
2016-09-11T04:59:20.035Z,1016.18
2016-09-11T05:00:20.054Z,1016.22
2016-09-11T05:01:20.077Z,1016.22
2016-09-11T05:02:20.099Z,1016.28
2016-09-11T05:03:20.125Z,1016.31
2016-09-11T05:04:20.142Z,1016.31
2016-09-11T05:05:20.170Z,1016.28
2016-09-11T05:06:20.190Z,1016.25
2016-09-11T05:07:20.282Z,1016.25
2016-09-11T05:08:20.236Z,1016.26
2016-09-11T05:09:20.256Z,1016.26
2016-09-11T05:10:20.278Z,1016.29
2016-09-11T05:11:20.300Z,1016.25
2016-09-11T05:12:20.322Z,1016.31
2016-09-11T05:13:20.345Z,1016.29
2016-09-11T05:14:20.364Z,1016.3
2016-09-11T05:15:20.395Z,1016.3
2016-09-11T05:16:20.413Z,1016.3
2016-09-11T05:17:20.433Z,1016.33
2016-09-11T05:18:20.454Z,1016.32
2016-09-11T05:19:20.479Z,1016.37
2016-09-11T05:20:20.506Z,1016.45
2016-09-11T05:21:20.523Z,1016.44
2016-09-11T05:22:20.549Z,1016.47
2016-09-11T05:23:20.573Z,1016.51
2016-09-11T05:24:20.592Z,1016.58
2016-09-11T05:25:20.629Z,1016.57
2016-09-11T05:26:20.644Z,1016.55
2016-09-11T05:27:20.666Z,1016.54
2016-09-11T05:28:20.682Z,1016.57
2016-09-11T05:29:20.703Z,1016.59
2016-09-11T05:30:20.724Z,1016.61
2016-09-11T05:31:20.791Z,1016.64
2016-09-11T05:32:20.775Z,1016.62
2016-09-11T05:33:20.798Z,1016.63
2016-09-11T05:34:20.825Z,1016.64
2016-09-11T05:35:20.842Z,1016.61
2016-09-11T05:36:20.861Z,1016.6
2016-09-11T05:37:20.895Z,1016.7
2016-09-11T05:38:20.908Z,1016.7
2016-09-11T05:39:20.944Z,1016.7
2016-09-11T05:40:20.971Z,1016.65
2016-09-11T05:41:20.979Z,1016.66
2016-09-11T05:42:21.004Z,1016.72
2016-09-11T05:43:21.026Z,1016.77
2016-09-11T05:44:21.106Z,1016.75
2016-09-11T05:45:21.073Z,1016.78
2016-09-11T05:46:21.094Z,1016.79
2016-09-11T05:47:21.123Z,1016.77
2016-09-11T05:48:21.144Z,1016.85
2016-09-11T05:49:21.172Z,1016.8
2016-09-11T05:50:21.184Z,1016.75
2016-09-11T05:51:21.212Z,1016.77
2016-09-11T05:52:21.233Z,1016.79
2016-09-11T05:53:21.261Z,1016.82
2016-09-11T05:54:21.285Z,1016.81
2016-09-11T05:55:21.302Z,1016.83
2016-09-11T05:56:21.330Z,1016.87
2016-09-11T05:57:21.348Z,1016.87
2016-09-11T05:58:21.375Z,1016.9
2016-09-11T05:59:21.406Z,1016.86
2016-09-11T06:00:21.423Z,1016.89
2016-09-11T06:01:21.444Z,1016.91
2016-09-11T06:02:21.473Z,1016.92
2016-09-11T06:03:21.493Z,1016.9
2016-09-11T06:04:21.515Z,1016.91
2016-09-11T06:05:21.546Z,1016.93
2016-09-11T06:06:21.559Z,1016.94
2016-09-11T06:07:21.590Z,1016.95
2016-09-11T06:08:21.615Z,1016.95
2016-09-11T06:09:21.643Z,1016.94
2016-09-11T06:10:21.664Z,1016.98
2016-09-11T06:11:21.684Z,1016.96
2016-09-11T06:12:21.739Z,1016.99
2016-09-11T06:13:21.772Z,1017.02
2016-09-11T06:14:21.769Z,1017
2016-09-11T06:15:21.781Z,1017.05
2016-09-11T06:16:21.803Z,1017.06
2016-09-11T06:17:21.840Z,1017.11
2016-09-11T06:18:21.854Z,1017.12
2016-09-11T06:19:21.893Z,1017.16
2016-09-11T06:20:21.906Z,1017.14
2016-09-11T06:21:21.929Z,1017.19
2016-09-11T06:22:21.955Z,1017.24
2016-09-11T06:23:21.974Z,1017.25
2016-09-11T06:24:22.028Z,1017.26
2016-09-11T06:25:22.225Z,1017.28
2016-09-11T06:26:22.309Z,1017.31
2016-09-11T06:27:22.357Z,1017.31
2016-09-11T06:28:22.309Z,1017.4
2016-09-11T06:29:22.277Z,1017.38
2016-09-11T06:30:22.266Z,1017.4
2016-09-11T06:31:22.424Z,1017.46
2016-09-11T06:32:22.304Z,1017.43
2016-09-11T06:33:22.300Z,1017.43
2016-09-11T06:34:22.308Z,1017.43
2016-09-11T06:35:22.277Z,1017.4
2016-09-11T06:36:22.329Z,1017.42
2016-09-11T06:37:22.321Z,1017.46
2016-09-11T06:38:22.354Z,1017.49
2016-09-11T06:39:22.384Z,1017.48
2016-09-11T06:40:22.409Z,1017.5
2016-09-11T06:41:23.239Z,1017.54
2016-09-11T06:42:22.508Z,1017.57
2016-09-11T06:43:22.488Z,1017.63
2016-09-11T06:44:22.564Z,1017.65
2016-09-11T06:45:22.534Z,1017.66
2016-09-11T06:46:22.569Z,1017.71
2016-09-11T06:47:22.607Z,1017.72
2016-09-11T06:48:22.613Z,1017.74
2016-09-11T06:49:22.643Z,1017.75
2016-09-11T06:50:22.677Z,1017.71
2016-09-11T06:51:22.730Z,1017.75
2016-09-11T06:52:22.715Z,1017.77
2016-09-11T06:53:22.743Z,1017.78
2016-09-11T06:54:22.774Z,1017.82
2016-09-11T06:55:22.805Z,1017.8
2016-09-11T06:56:22.828Z,1017.82
2016-09-11T06:57:22.863Z,1017.83
2016-09-11T06:58:22.884Z,1017.85
2016-09-11T06:59:22.922Z,1017.91
2016-09-11T07:00:22.946Z,1017.87
2016-09-11T07:01:22.966Z,1017.86
2016-09-11T07:02:22.995Z,1017.9
2016-09-11T07:03:23.030Z,1017.9
2016-09-11T07:04:23.058Z,1017.9
2016-09-11T07:05:23.076Z,1017.87
2016-09-11T07:06:23.112Z,1017.92
2016-09-11T07:07:23.129Z,1017.97
2016-09-11T07:08:23.164Z,1017.97
2016-09-11T07:09:23.194Z,1017.96
2016-09-11T07:10:23.227Z,1017.98
2016-09-11T07:11:23.256Z,1018.01
2016-09-11T07:12:23.287Z,1018.03
2016-09-11T07:13:23.315Z,1018.02
2016-09-11T07:14:23.343Z,1018.03
2016-09-11T07:15:23.372Z,1018.03
2016-09-11T07:16:23.397Z,1018.08
2016-09-11T07:17:23.433Z,1018.08
2016-09-11T07:18:23.455Z,1018.05
2016-09-11T07:19:23.498Z,1018.05
2016-09-11T07:20:23.524Z,1018.08
2016-09-11T07:21:23.546Z,1018.13
2016-09-11T07:22:23.580Z,1018.09
2016-09-11T07:23:23.598Z,1018.11
2016-09-11T07:24:23.643Z,1018.12
2016-09-11T07:25:23.662Z,1018.13
2016-09-11T07:26:23.793Z,1018.12
2016-09-11T07:27:23.730Z,1018.11
2016-09-11T07:28:23.826Z,1018.16
2016-09-11T07:29:23.779Z,1018.13
2016-09-11T07:30:23.809Z,1018.12
2016-09-11T07:31:23.841Z,1018.13
2016-09-11T07:32:23.895Z,1018.13
2016-09-11T07:33:23.895Z,1018.1
2016-09-11T07:34:23.925Z,1018.09
2016-09-11T07:35:23.958Z,1018.14
2016-09-11T07:36:23.988Z,1018.14
2016-09-11T07:37:24.013Z,1018.12
2016-09-11T07:38:24.040Z,1018.16
2016-09-11T07:39:24.077Z,1018.18
2016-09-11T07:40:24.208Z,1018.18
2016-09-11T07:41:24.131Z,1018.19
2016-09-11T07:42:24.152Z,1018.22
2016-09-11T07:43:24.288Z,1018.22
2016-09-11T07:44:24.225Z,1018.26
2016-09-11T07:45:24.249Z,1018.28
2016-09-11T07:46:24.273Z,1018.36
2016-09-11T07:47:24.311Z,1018.31
2016-09-11T07:48:24.327Z,1018.3
2016-09-11T07:49:24.356Z,1018.35
2016-09-11T07:50:24.392Z,1018.39
2016-09-11T07:51:24.421Z,1018.42
2016-09-11T07:52:24.442Z,1018.38
2016-09-11T07:53:24.465Z,1018.4
2016-09-11T07:54:24.504Z,1018.4
2016-09-11T07:55:24.530Z,1018.4
2016-09-11T07:56:24.724Z,1018.44
2016-09-11T07:57:24.644Z,1018.41
2016-09-11T07:58:24.795Z,1018.44
2016-09-11T07:59:24.636Z,1018.46
2016-09-11T08:00:24.660Z,1018.48
2016-09-11T08:01:24.765Z,1018.44
2016-09-11T08:02:24.715Z,1018.48
2016-09-11T08:03:24.750Z,1018.47
2016-09-11T08:04:24.772Z,1018.46
2016-09-11T08:05:24.798Z,1018.48
2016-09-11T08:06:24.826Z,1018.48
2016-09-11T08:07:24.854Z,1018.52
2016-09-11T08:08:24.896Z,1018.55
2016-09-11T08:09:24.903Z,1018.58
2016-09-11T08:10:24.942Z,1018.62
2016-09-11T08:11:24.963Z,1018.6
2016-09-11T08:12:24.995Z,1018.58
2016-09-11T08:13:25.081Z,1018.58
2016-09-11T08:14:25.045Z,1018.62
2016-09-11T08:15:25.074Z,1018.66
2016-09-11T08:16:25.096Z,1018.66
2016-09-11T08:17:25.132Z,1018.71
2016-09-11T08:18:25.174Z,1018.74
2016-09-11T08:19:25.180Z,1018.75
2016-09-11T08:20:25.210Z,1018.76
2016-09-11T08:21:25.235Z,1018.77
2016-09-11T08:22:25.314Z,1018.75
2016-09-11T08:23:25.294Z,1018.76
2016-09-11T08:24:25.314Z,1018.76
2016-09-11T08:25:25.404Z,1018.82
2016-09-11T08:26:25.486Z,1018.86
2016-09-11T08:27:25.459Z,1018.86
2016-09-11T08:28:25.434Z,1018.91
2016-09-11T08:29:25.456Z,1018.86
2016-09-11T08:30:25.485Z,1018.89
2016-09-11T08:31:25.504Z,1018.86
2016-09-11T08:32:25.534Z,1018.88
2016-09-11T08:33:25.574Z,1018.95
2016-09-11T08:34:25.590Z,1018.93
2016-09-11T08:35:25.617Z,1018.97
2016-09-11T08:36:25.658Z,1018.95
2016-09-11T08:37:25.677Z,1018.96
2016-09-11T08:38:25.697Z,1018.94
2016-09-11T08:39:25.727Z,1018.95
2016-09-11T08:40:25.755Z,1018.95
2016-09-11T08:41:25.784Z,1018.97
2016-09-11T08:42:25.826Z,1018.95
2016-09-11T08:43:25.835Z,1018.95
2016-09-11T08:44:25.877Z,1018.99
2016-09-11T08:45:25.889Z,1018.97
2016-09-11T08:46:25.922Z,1018.96
2016-09-11T08:47:25.944Z,1018.95
2016-09-11T08:48:26.067Z,1019
2016-09-11T08:49:26.007Z,1019.05
2016-09-11T08:50:26.031Z,1019.05
2016-09-11T08:51:26.053Z,1019.05
2016-09-11T08:52:26.088Z,1019.08
2016-09-11T08:53:26.114Z,1019.06
2016-09-11T08:54:26.304Z,1019.1
2016-09-11T08:55:26.174Z,1019.14
2016-09-11T08:56:26.193Z,1019.1
2016-09-11T08:57:26.220Z,1019.08
2016-09-11T08:58:26.244Z,1019.08
2016-09-11T08:59:26.273Z,1019.14
2016-09-11T09:00:26.302Z,1019.14
2016-09-11T09:01:26.322Z,1019.15
2016-09-11T09:02:26.353Z,1019.16
2016-09-11T09:03:26.472Z,1019.17
2016-09-11T09:04:26.415Z,1019.16
2016-09-11T09:05:26.444Z,1019.14
2016-09-11T09:06:26.472Z,1019.19
2016-09-11T09:07:26.507Z,1019.18
2016-09-11T09:08:26.527Z,1019.17
2016-09-11T09:09:26.563Z,1019.18
2016-09-11T09:10:26.580Z,1019.19
2016-09-11T09:11:26.612Z,1019.2
2016-09-11T09:12:26.629Z,1019.2
2016-09-11T09:13:26.664Z,1019.21
2016-09-11T09:14:26.692Z,1019.22
2016-09-11T09:15:26.713Z,1019.21
2016-09-11T09:16:26.742Z,1019.21
2016-09-11T09:17:26.766Z,1019.22
2016-09-11T09:18:26.839Z,1019.28
2016-09-11T09:19:26.916Z,1019.25
2016-09-11T09:20:26.901Z,1019.24
2016-09-11T09:21:26.882Z,1019.26
2016-09-11T09:22:26.916Z,1019.27
2016-09-11T09:23:26.932Z,1019.26
2016-09-11T09:24:26.964Z,1019.28
2016-09-11T09:25:26.986Z,1019.34
2016-09-11T09:26:27.013Z,1019.3
2016-09-11T09:27:27.055Z,1019.3
2016-09-11T09:28:27.072Z,1019.29
2016-09-11T09:29:27.119Z,1019.3
2016-09-11T09:30:27.135Z,1019.33
2016-09-11T09:31:27.161Z,1019.35
2016-09-11T09:32:27.194Z,1019.29
2016-09-11T09:33:27.213Z,1019.32
2016-09-11T09:34:27.235Z,1019.29
2016-09-11T09:35:27.274Z,1019.3
2016-09-11T09:36:27.308Z,1019.31
2016-09-11T09:37:27.319Z,1019.34
2016-09-11T09:38:27.370Z,1019.33
2016-09-11T09:39:27.436Z,1019.34
2016-09-11T09:40:27.400Z,1019.34
2016-09-11T09:41:27.442Z,1019.33
2016-09-11T09:42:27.466Z,1019.33
2016-09-11T09:43:27.483Z,1019.32
2016-09-11T09:44:27.517Z,1019.3
2016-09-11T09:45:27.553Z,1019.34
2016-09-11T09:46:27.576Z,1019.34
2016-09-11T09:47:27.594Z,1019.39
2016-09-11T09:48:27.626Z,1019.33
2016-09-11T09:49:27.653Z,1019.33
2016-09-11T09:50:27.820Z,1019.28
2016-09-11T09:51:27.710Z,1019.34
2016-09-11T09:52:27.748Z,1019.33
2016-09-11T09:53:27.765Z,1019.3
2016-09-11T09:54:27.805Z,1019.36
2016-09-11T09:55:27.824Z,1019.36
2016-09-11T09:56:27.844Z,1019.39
2016-09-11T09:57:27.889Z,1019.36
2016-09-11T09:58:27.902Z,1019.38
2016-09-11T09:59:27.929Z,1019.37
2016-09-11T10:00:27.961Z,1019.38
2016-09-11T10:01:27.982Z,1019.42
2016-09-11T10:02:28.014Z,1019.43
2016-09-11T10:03:28.055Z,1019.4
2016-09-11T10:04:28.076Z,1019.46
2016-09-11T10:05:28.163Z,1019.47
2016-09-11T10:06:28.122Z,1019.44
2016-09-11T10:07:28.152Z,1019.47
2016-09-11T10:08:28.186Z,1019.47
2016-09-11T10:09:28.219Z,1019.43
2016-09-11T10:10:28.251Z,1019.44
2016-09-11T10:11:28.262Z,1019.44
2016-09-11T10:12:28.299Z,1019.53
2016-09-11T10:13:28.328Z,1019.5
2016-09-11T10:14:28.343Z,1019.55
2016-09-11T10:15:28.384Z,1019.51
2016-09-11T10:16:28.402Z,1019.54
2016-09-11T10:17:28.434Z,1019.47
2016-09-11T10:18:28.470Z,1019.48
2016-09-11T10:19:28.506Z,1019.51
2016-09-11T10:20:28.515Z,1019.52
2016-09-11T10:21:28.549Z,1019.49
2016-09-11T10:22:28.574Z,1019.5
2016-09-11T10:23:28.604Z,1019.5
2016-09-11T10:24:28.640Z,1019.49
2016-09-11T10:25:28.660Z,1019.51
2016-09-11T10:26:28.694Z,1019.52
2016-09-11T10:27:28.719Z,1019.55
2016-09-11T10:28:28.745Z,1019.58
2016-09-11T10:29:28.769Z,1019.57
2016-09-11T10:30:28.799Z,1019.6
2016-09-11T10:31:28.819Z,1019.64
2016-09-11T10:32:28.855Z,1019.64
2016-09-11T10:33:28.884Z,1019.65
2016-09-11T10:34:28.909Z,1019.62
2016-09-11T10:35:28.947Z,1019.66
2016-09-11T10:36:28.965Z,1019.61
2016-09-11T10:37:29.007Z,1019.63
2016-09-11T10:38:29.032Z,1019.65
2016-09-11T10:39:29.082Z,1019.58
2016-09-11T10:40:29.083Z,1019.6
2016-09-11T10:41:29.123Z,1019.67
2016-09-11T10:42:29.143Z,1019.61
2016-09-11T10:43:29.174Z,1019.66
2016-09-11T10:44:29.196Z,1019.66
2016-09-11T10:45:29.273Z,1019.6
2016-09-11T10:46:29.248Z,1019.6
2016-09-11T10:47:29.289Z,1019.64
2016-09-11T10:48:29.310Z,1019.65
2016-09-11T10:49:29.371Z,1019.63
2016-09-11T10:50:29.363Z,1019.63
2016-09-11T10:51:29.398Z,1019.6
2016-09-11T10:52:29.424Z,1019.66
2016-09-11T10:53:29.459Z,1019.68
2016-09-11T10:54:29.482Z,1019.67
2016-09-11T10:55:29.523Z,1019.68
2016-09-11T10:56:29.535Z,1019.73
2016-09-11T10:57:29.568Z,1019.74
2016-09-11T10:58:29.619Z,1019.77
2016-09-11T10:59:29.625Z,1019.71
2016-09-11T11:00:29.653Z,1019.77
2016-09-11T11:01:29.682Z,1019.77
2016-09-11T11:02:29.701Z,1019.79
2016-09-11T11:03:29.751Z,1019.77
2016-09-11T11:04:29.819Z,1019.77
2016-09-11T11:05:29.794Z,1019.74
2016-09-11T11:06:29.816Z,1019.71
2016-09-11T11:07:29.849Z,1019.81
2016-09-11T11:08:29.881Z,1019.77
2016-09-11T11:09:29.912Z,1019.74
2016-09-11T11:10:29.948Z,1019.75
2016-09-11T11:11:29.984Z,1019.74
2016-09-11T11:12:29.993Z,1019.75
2016-09-11T11:13:30.022Z,1019.72
2016-09-11T11:14:30.064Z,1019.73
2016-09-11T11:15:30.097Z,1019.73
2016-09-11T11:16:30.126Z,1019.75
2016-09-11T11:17:30.153Z,1019.74
2016-09-11T11:18:30.167Z,1019.72
2016-09-11T11:19:30.197Z,1019.74
2016-09-11T11:20:30.232Z,1019.7
2016-09-11T11:21:30.263Z,1019.76
2016-09-11T11:22:30.290Z,1019.72
2016-09-11T11:23:30.315Z,1019.72
2016-09-11T11:24:30.335Z,1019.71
2016-09-11T11:25:30.377Z,1019.74
2016-09-11T11:26:30.397Z,1019.72
2016-09-11T11:27:30.420Z,1019.71
2016-09-11T11:28:30.689Z,1019.72
2016-09-11T11:29:30.481Z,1019.71
2016-09-11T11:30:30.515Z,1019.73
2016-09-11T11:31:30.538Z,1019.72
2016-09-11T11:32:30.844Z,1019.75
2016-09-11T11:33:30.595Z,1019.72
2016-09-11T11:34:30.619Z,1019.67
2016-09-11T11:35:30.649Z,1019.78
2016-09-11T11:36:30.738Z,1019.8
2016-09-11T11:37:30.736Z,1019.82
2016-09-11T11:38:30.771Z,1019.78
2016-09-11T11:39:30.761Z,1019.75
2016-09-11T11:40:30.805Z,1019.82
2016-09-11T11:41:30.818Z,1019.8
2016-09-11T11:42:30.860Z,1019.76
2016-09-11T11:43:30.890Z,1019.74
2016-09-11T11:44:30.914Z,1019.77
2016-09-11T11:45:30.935Z,1019.81
2016-09-11T11:46:30.971Z,1019.76
2016-09-11T11:47:30.993Z,1019.75
2016-09-11T11:48:45.915Z,1019.72
2016-09-11T11:49:32.858Z,1019.7
2016-09-11T11:50:31.142Z,1019.73
2016-09-11T11:51:31.139Z,1019.75
2016-09-11T11:52:31.194Z,1019.79
2016-09-11T11:53:31.173Z,1019.75
2016-09-11T11:54:31.194Z,1019.82
2016-09-11T11:55:31.224Z,1019.81
2016-09-11T11:56:31.252Z,1019.8
2016-09-11T11:57:31.304Z,1019.81
2016-09-11T11:58:31.306Z,1019.81
2016-09-11T11:59:31.347Z,1019.8
2016-09-11T12:00:31.364Z,1019.83
2016-09-11T12:01:31.394Z,1019.82
2016-09-11T12:02:31.429Z,1019.78
2016-09-11T12:03:31.457Z,1019.77
2016-09-11T12:04:31.545Z,1019.74
2016-09-11T12:05:31.513Z,1019.73
2016-09-11T12:06:31.534Z,1019.73
2016-09-11T12:07:31.590Z,1019.72
2016-09-11T12:08:31.592Z,1019.76